Kezdőlap
METAR-TAF:

METAR-TAF

Repülőterek :

Bécsújhelyi repülőtér

Bécsújhely, Ausztria

földrajzi szélesség: 47-50-36N, földrajzi hosszúság: 016-15-29E, magasság: 272 m

Jelenlegi meteorológiai megfigyelések

A jelentés 1 órával és 8 perccel ezelõtt készült, 13:00 UTC
Nyugati szél 12 kt széllökések: 22 kt
Hőmérséklet
Légköri nyomás

METAR: LOAN 181300Z 27012G22KT 40KM FEW030CU SCT080SC

Idő: 15:08 (14:08 UTC)

Előrejelzés

A jelentés 2 órával és 43 perccel ezelõtt készült, 11:25 UTC
Az előrejelzés 18-én 12 óra UTC és 18-én 21 óra UTC között érvényes
Nyugat-északnyugati szél 13 kt
Látótávolság 10 km, vagy több
Kevés felhő 4000 lábon
Szórványos felhőzet 10000 lábon
18-én 12 óra UTC és 18-én 16 óra UTC között ideiglenes
Északnyugati szél 20 kt széllökések: 33 kt
Szórványos felhőzet 4000 lábon

TAF: LOAN 181125Z 1812/1821 29013KT 9999 FEW040 SCT100 TEMPO 1812/1816 31020G33KT SCT040

Meteorológiai megfigyelések és előrejelzések több, mint 4000 repülőtéren (METAR és TAF jelentéseket).

A térképen piros és sárga pontok jelzik az elérhető meteorológiai állomásokat.

Mozgassa az egeret a pont fölött, hogy megjelenjen az állomás neve.

Azután kattintson az időjárási megfigyelések és előrejelzések megtekintéséhez.

A térkép megváltoztatása: kattintson a fekete keresztel jelölt zöld gombra ráközelítéshez, a vonallal jelölt zöld gombra távolításhoz, vagy a zöld nyilakra a szomszédos térképek eléréséhez.


METAR-TAF: